sensor_id;sensor_type;location;lat;lon;timestamp;P1;durP1;ratioP1;P2;durP2;ratioP2
8177;SDS011;4130;48.740;9.132;2022-10-31T00:01:18;2.23;;;1.87;;
8177;SDS011;4130;48.740;9.132;2022-10-31T00:03:47;2.00;;;1.80;;
8177;SDS011;4130;48.740;9.132;2022-10-31T00:06:14;2.60;;;1.93;;
8177;SDS011;4130;48.740;9.132;2022-10-31T00:08:43;3.57;;;2.23;;
8177;SDS011;4130;48.740;9.132;2022-10-31T00:11:09;2.37;;;2.10;;
8177;SDS011;4130;48.740;9.132;2022-10-31T00:13:36;2.87;;;2.00;;
8177;SDS011;4130;48.740;9.132;2022-10-31T00:16:04;2.30;;;1.90;;
8177;SDS011;4130;48.740;9.132;2022-10-31T00:18:32;3.63;;;2.07;;
8177;SDS011;4130;48.740;9.132;2022-10-31T00:20:59;2.13;;;1.90;;
8177;SDS011;4130;48.740;9.132;2022-10-31T00:23:26;2.10;;;1.90;;
8177;SDS011;4130;48.740;9.132;2022-10-31T00:25:53;2.20;;;1.90;;
8177;SDS011;4130;48.740;9.132;2022-10-31T00:28:20;2.27;;;1.80;;
8177;SDS011;4130;48.740;9.132;2022-10-31T00:30:47;2.80;;;1.70;;
8177;SDS011;4130;48.740;9.132;2022-10-31T00:33:13;2.40;;;1.80;;
8177;SDS011;4130;48.740;9.132;2022-10-31T00:35:41;2.17;;;1.80;;
8177;SDS011;4130;48.740;9.132;2022-10-31T00:38:08;1.90;;;1.80;;
8177;SDS011;4130;48.740;9.132;2022-10-31T00:40:35;2.47;;;1.80;;
8177;SDS011;4130;48.740;9.132;2022-10-31T00:43:01;2.70;;;1.90;;
8177;SDS011;4130;48.740;9.132;2022-10-31T00:45:28;2.90;;;1.70;;
8177;SDS011;4130;48.740;9.132;2022-10-31T00:47:55;1.83;;;1.73;;
8177;SDS011;4130;48.740;9.132;2022-10-31T00:50:21;2.20;;;1.80;;
8177;SDS011;4130;48.740;9.132;2022-10-31T00:52:49;1.87;;;1.77;;
8177;SDS011;4130;48.740;9.132;2022-10-31T00:55:16;2.13;;;1.73;;
8177;SDS011;4130;48.740;9.132;2022-10-31T00:57:45;4.30;;;2.17;;
8177;SDS011;4130;48.740;9.132;2022-10-31T01:00:12;4.03;;;1.93;;
8177;SDS011;4130;48.740;9.132;2022-10-31T01:02:39;2.70;;;1.90;;
8177;SDS011;4130;48.740;9.132;2022-10-31T01:05:06;1.83;;;1.70;;
8177;SDS011;4130;48.740;9.132;2022-10-31T01:07:35;2.77;;;2.10;;
8177;SDS011;4130;48.740;9.132;2022-10-31T01:10:03;1.90;;;1.70;;
8177;SDS011;4130;48.740;9.132;2022-10-31T01:12:35;1.60;;;1.50;;
8177;SDS011;4130;48.740;9.132;2022-10-31T01:15:03;2.57;;;1.83;;
8177;SDS011;4130;48.740;9.132;2022-10-31T01:17:30;1.77;;;1.67;;
8177;SDS011;4130;48.740;9.132;2022-10-31T01:19:57;1.77;;;1.60;;
8177;SDS011;4130;48.740;9.132;2022-10-31T01:22:23;2.07;;;1.60;;
8177;SDS011;4130;48.740;9.132;2022-10-31T01:24:50;2.07;;;1.87;;
8177;SDS011;4130;48.740;9.132;2022-10-31T01:27:18;2.80;;;1.70;;
8177;SDS011;4130;48.740;9.132;2022-10-31T01:29:45;2.20;;;1.50;;
8177;SDS011;4130;48.740;9.132;2022-10-31T01:32:11;1.83;;;1.50;;
8177;SDS011;4130;48.740;9.132;2022-10-31T01:34:38;2.30;;;1.93;;
8177;SDS011;4130;48.740;9.132;2022-10-31T01:37:05;1.73;;;1.57;;
8177;SDS011;4130;48.740;9.132;2022-10-31T01:39:32;3.43;;;1.90;;
8177;SDS011;4130;48.740;9.132;2022-10-31T01:41:58;1.30;;;1.27;;
8177;SDS011;4130;48.740;9.132;2022-10-31T01:47:19;7.00;;;1.60;;
8177;SDS011;4130;48.740;9.132;2022-10-31T01:49:54;4.27;;;2.10;;
8177;SDS011;4130;48.740;9.132;2022-10-31T01:52:24;4.30;;;1.50;;
8177;SDS011;4130;48.740;9.132;2022-10-31T01:54:56;2.47;;;1.50;;
8177;SDS011;4130;48.740;9.132;2022-10-31T01:57:26;1.43;;;1.33;;
8177;SDS011;4130;48.740;9.132;2022-10-31T01:59:57;3.07;;;1.67;;
8177;SDS011;4130;48.740;9.132;2022-10-31T02:02:27;3.40;;;1.70;;
8177;SDS011;4130;48.740;9.132;2022-10-31T02:04:56;2.17;;;1.80;;
8177;SDS011;4130;48.740;9.132;2022-10-31T02:07:25;2.83;;;1.90;;
8177;SDS011;4130;48.740;9.132;2022-10-31T02:09:55;2.27;;;1.80;;
8177;SDS011;4130;48.740;9.132;2022-10-31T02:12:23;2.87;;;1.70;;
8177;SDS011;4130;48.740;9.132;2022-10-31T02:14:51;2.03;;;1.83;;
8177;SDS011;4130;48.740;9.132;2022-10-31T02:17:19;1.90;;;1.70;;
8177;SDS011;4130;48.740;9.132;2022-10-31T02:19:47;2.00;;;1.70;;
8177;SDS011;4130;48.740;9.132;2022-10-31T02:22:21;2.77;;;1.63;;
8177;SDS011;4130;48.740;9.132;2022-10-31T02:24:56;1.83;;;1.70;;
8177;SDS011;4130;48.740;9.132;2022-10-31T02:27:37;2.60;;;2.07;;
8177;SDS011;4130;48.740;9.132;2022-10-31T02:30:16;2.80;;;1.90;;
8177;SDS011;4130;48.740;9.132;2022-10-31T02:32:56;2.00;;;1.80;;
8177;SDS011;4130;48.740;9.132;2022-10-31T02:35:39;4.00;;;1.80;;
8177;SDS011;4130;48.740;9.132;2022-10-31T02:38:12;4.33;;;1.97;;
8177;SDS011;4130;48.740;9.132;2022-10-31T02:40:47;1.93;;;1.83;;
8177;SDS011;4130;48.740;9.132;2022-10-31T02:43:19;2.10;;;1.90;;
8177;SDS011;4130;48.740;9.132;2022-10-31T02:45:50;1.80;;;1.70;;
8177;SDS011;4130;48.740;9.132;2022-10-31T02:48:23;1.93;;;1.77;;
8177;SDS011;4130;48.740;9.132;2022-10-31T02:50:54;1.80;;;1.70;;
8177;SDS011;4130;48.740;9.132;2022-10-31T02:53:23;3.13;;;1.83;;
8177;SDS011;4130;48.740;9.132;2022-10-31T02:55:51;2.93;;;1.70;;
8177;SDS011;4130;48.740;9.132;2022-10-31T02:58:24;2.40;;;1.87;;
8177;SDS011;4130;48.740;9.132;2022-10-31T03:04:05;6.03;;;1.90;;
8177;SDS011;4130;48.740;9.132;2022-10-31T03:06:56;3.47;;;1.80;;
8177;SDS011;4130;48.740;9.132;2022-10-31T03:09:32;3.17;;;1.97;;
8177;SDS011;4130;48.740;9.132;2022-10-31T03:12:05;2.97;;;2.07;;
8177;SDS011;4130;48.740;9.132;2022-10-31T03:14:38;2.80;;;1.93;;
8177;SDS011;4130;48.740;9.132;2022-10-31T03:17:10;2.13;;;1.87;;
8177;SDS011;4130;48.740;9.132;2022-10-31T03:19:44;3.63;;;1.87;;
8177;SDS011;4130;48.740;9.132;2022-10-31T03:22:15;3.13;;;2.07;;
8177;SDS011;4130;48.740;9.132;2022-10-31T03:24:43;2.30;;;1.70;;
8177;SDS011;4130;48.740;9.132;2022-10-31T03:27:13;2.13;;;1.80;;
8177;SDS011;4130;48.740;9.132;2022-10-31T03:29:44;2.00;;;1.80;;
8177;SDS011;4130;48.740;9.132;2022-10-31T03:32:13;4.73;;;1.97;;
8177;SDS011;4130;48.740;9.132;2022-10-31T03:34:44;2.03;;;1.70;;
8177;SDS011;4130;48.740;9.132;2022-10-31T03:37:13;3.47;;;1.80;;
8177;SDS011;4130;48.740;9.132;2022-10-31T03:39:43;2.80;;;1.87;;
8177;SDS011;4130;48.740;9.132;2022-10-31T03:42:13;3.03;;;1.60;;
8177;SDS011;4130;48.740;9.132;2022-10-31T03:44:42;3.47;;;1.90;;
8177;SDS011;4130;48.740;9.132;2022-10-31T03:47:13;4.00;;;1.67;;
8177;SDS011;4130;48.740;9.132;2022-10-31T03:49:39;3.30;;;1.90;;
8177;SDS011;4130;48.740;9.132;2022-10-31T03:52:10;1.80;;;1.70;;
8177;SDS011;4130;48.740;9.132;2022-10-31T03:54:43;1.50;;;1.40;;
8177;SDS011;4130;48.740;9.132;2022-10-31T03:57:13;3.00;;;1.80;;
8177;SDS011;4130;48.740;9.132;2022-10-31T03:59:44;2.13;;;1.70;;
8177;SDS011;4130;48.740;9.132;2022-10-31T04:02:16;2.30;;;1.60;;
8177;SDS011;4130;48.740;9.132;2022-10-31T04:04:46;1.93;;;1.50;;
8177;SDS011;4130;48.740;9.132;2022-10-31T04:07:15;1.87;;;1.77;;
8177;SDS011;4130;48.740;9.132;2022-10-31T04:09:44;2.37;;;1.70;;
8177;SDS011;4130;48.740;9.132;2022-10-31T04:12:14;3.27;;;1.80;;
8177;SDS011;4130;48.740;9.132;2022-10-31T04:14:43;1.80;;;1.70;;
8177;SDS011;4130;48.740;9.132;2022-10-31T04:17:13;2.63;;;1.73;;
8177;SDS011;4130;48.740;9.132;2022-10-31T04:19:42;4.00;;;2.07;;
8177;SDS011;4130;48.740;9.132;2022-10-31T04:22:09;2.40;;;1.73;;
8177;SDS011;4130;48.740;9.132;2022-10-31T04:24:37;1.97;;;1.60;;
8177;SDS011;4130;48.740;9.132;2022-10-31T04:27:06;3.63;;;2.00;;
8177;SDS011;4130;48.740;9.132;2022-10-31T04:29:32;1.93;;;1.73;;
8177;SDS011;4130;48.740;9.132;2022-10-31T04:31:59;4.87;;;2.10;;
8177;SDS011;4130;48.740;9.132;2022-10-31T04:34:26;2.17;;;1.97;;
8177;SDS011;4130;48.740;9.132;2022-10-31T04:36:52;2.33;;;2.00;;
8177;SDS011;4130;48.740;9.132;2022-10-31T04:39:19;3.07;;;2.00;;
8177;SDS011;4130;48.740;9.132;2022-10-31T04:41:47;2.90;;;1.97;;
8177;SDS011;4130;48.740;9.132;2022-10-31T04:44:14;1.73;;;1.63;;
8177;SDS011;4130;48.740;9.132;2022-10-31T04:46:41;2.70;;;1.87;;
8177;SDS011;4130;48.740;9.132;2022-10-31T04:49:07;1.83;;;1.63;;
8177;SDS011;4130;48.740;9.132;2022-10-31T04:51:34;1.97;;;1.83;;
8177;SDS011;4130;48.740;9.132;2022-10-31T04:54:01;2.33;;;1.70;;
8177;SDS011;4130;48.740;9.132;2022-10-31T04:56:27;1.67;;;1.57;;
8177;SDS011;4130;48.740;9.132;2022-10-31T04:58:55;2.93;;;1.63;;
8177;SDS011;4130;48.740;9.132;2022-10-31T05:01:22;6.13;;;2.00;;
8177;SDS011;4130;48.740;9.132;2022-10-31T05:03:49;1.70;;;1.60;;
8177;SDS011;4130;48.740;9.132;2022-10-31T05:06:16;1.83;;;1.60;;
8177;SDS011;4130;48.740;9.132;2022-10-31T05:08:42;1.97;;;1.77;;
8177;SDS011;4130;48.740;9.132;2022-10-31T05:11:09;1.70;;;1.60;;
8177;SDS011;4130;48.740;9.132;2022-10-31T05:13:36;2.33;;;1.90;;
8177;SDS011;4130;48.740;9.132;2022-10-31T05:16:04;2.67;;;1.90;;
8177;SDS011;4130;48.740;9.132;2022-10-31T05:18:31;2.20;;;1.77;;
8177;SDS011;4130;48.740;9.132;2022-10-31T05:20:58;2.00;;;1.73;;
8177;SDS011;4130;48.740;9.132;2022-10-31T05:23:24;1.83;;;1.70;;
8177;SDS011;4130;48.740;9.132;2022-10-31T05:25:51;3.03;;;1.77;;
8177;SDS011;4130;48.740;9.132;2022-10-31T05:28:18;3.70;;;1.60;;
8177;SDS011;4130;48.740;9.132;2022-10-31T05:30:44;2.57;;;1.80;;
8177;SDS011;4130;48.740;9.132;2022-10-31T05:33:12;1.87;;;1.73;;
8177;SDS011;4130;48.740;9.132;2022-10-31T05:35:39;1.60;;;1.50;;
8177;SDS011;4130;48.740;9.132;2022-10-31T05:38:06;1.90;;;1.63;;
8177;SDS011;4130;48.740;9.132;2022-10-31T05:40:32;1.93;;;1.83;;
8177;SDS011;4130;48.740;9.132;2022-10-31T05:42:59;2.07;;;1.77;;
8177;SDS011;4130;48.740;9.132;2022-10-31T05:45:26;4.47;;;2.00;;
8177;SDS011;4130;48.740;9.132;2022-10-31T05:47:52;2.47;;;1.60;;
8177;SDS011;4130;48.740;9.132;2022-10-31T05:50:22;1.83;;;1.40;;
8177;SDS011;4130;48.740;9.132;2022-10-31T05:52:53;1.97;;;1.70;;
8177;SDS011;4130;48.740;9.132;2022-10-31T05:55:21;1.60;;;1.50;;
8177;SDS011;4130;48.740;9.132;2022-10-31T05:57:48;1.73;;;1.60;;
8177;SDS011;4130;48.740;9.132;2022-10-31T06:00:15;1.90;;;1.70;;
8177;SDS011;4130;48.740;9.132;2022-10-31T06:02:42;1.73;;;1.63;;
8177;SDS011;4130;48.740;9.132;2022-10-31T06:05:08;1.77;;;1.67;;
8177;SDS011;4130;48.740;9.132;2022-10-31T06:07:36;1.83;;;1.60;;
8177;SDS011;4130;48.740;9.132;2022-10-31T06:10:04;1.70;;;1.60;;
8177;SDS011;4130;48.740;9.132;2022-10-31T06:12:33;2.17;;;1.90;;
8177;SDS011;4130;48.740;9.132;2022-10-31T06:15:02;1.50;;;1.40;;
8177;SDS011;4130;48.740;9.132;2022-10-31T06:17:30;1.97;;;1.60;;
8177;SDS011;4130;48.740;9.132;2022-10-31T06:19:56;2.13;;;1.80;;
8177;SDS011;4130;48.740;9.132;2022-10-31T06:22:23;3.23;;;2.30;;
8177;SDS011;4130;48.740;9.132;2022-10-31T06:24:51;1.57;;;1.47;;
8177;SDS011;4130;48.740;9.132;2022-10-31T06:27:18;2.07;;;1.90;;
8177;SDS011;4130;48.740;9.132;2022-10-31T06:29:44;1.70;;;1.60;;
8177;SDS011;4130;48.740;9.132;2022-10-31T06:32:11;2.27;;;1.60;;
8177;SDS011;4130;48.740;9.132;2022-10-31T06:34:38;2.27;;;1.83;;
8177;SDS011;4130;48.740;9.132;2022-10-31T06:37:05;2.10;;;1.90;;
8177;SDS011;4130;48.740;9.132;2022-10-31T06:39:32;2.00;;;1.90;;
8177;SDS011;4130;48.740;9.132;2022-10-31T06:42:01;2.40;;;2.00;;
8177;SDS011;4130;48.740;9.132;2022-10-31T06:44:27;2.07;;;1.90;;
8177;SDS011;4130;48.740;9.132;2022-10-31T06:46:54;2.10;;;1.90;;
8177;SDS011;4130;48.740;9.132;2022-10-31T06:49:21;2.53;;;1.80;;
8177;SDS011;4130;48.740;9.132;2022-10-31T06:51:47;2.13;;;1.93;;
8177;SDS011;4130;48.740;9.132;2022-10-31T06:54:14;2.30;;;2.00;;
8177;SDS011;4130;48.740;9.132;2022-10-31T06:56:42;2.37;;;1.83;;
8177;SDS011;4130;48.740;9.132;2022-10-31T06:59:12;4.27;;;2.30;;
8177;SDS011;4130;48.740;9.132;2022-10-31T07:01:39;1.93;;;1.73;;
8177;SDS011;4130;48.740;9.132;2022-10-31T07:04:05;2.53;;;2.20;;
8177;SDS011;4130;48.740;9.132;2022-10-31T07:06:35;2.73;;;1.70;;
8177;SDS011;4130;48.740;9.132;2022-10-31T07:09:02;2.10;;;1.90;;
8177;SDS011;4130;48.740;9.132;2022-10-31T07:11:29;1.87;;;1.73;;
8177;SDS011;4130;48.740;9.132;2022-10-31T07:13:56;2.13;;;1.93;;
8177;SDS011;4130;48.740;9.132;2022-10-31T07:16:25;2.23;;;2.03;;
8177;SDS011;4130;48.740;9.132;2022-10-31T07:18:52;2.93;;;1.77;;
8177;SDS011;4130;48.740;9.132;2022-10-31T07:21:19;2.20;;;2.00;;
8177;SDS011;4130;48.740;9.132;2022-10-31T07:23:47;2.67;;;2.30;;
8177;SDS011;4130;48.740;9.132;2022-10-31T07:26:13;3.17;;;2.20;;
8177;SDS011;4130;48.740;9.132;2022-10-31T07:28:40;3.23;;;2.40;;
8177;SDS011;4130;48.740;9.132;2022-10-31T07:31:07;2.87;;;1.80;;
8177;SDS011;4130;48.740;9.132;2022-10-31T07:33:35;2.37;;;1.90;;
8177;SDS011;4130;48.740;9.132;2022-10-31T07:36:02;2.93;;;2.13;;
8177;SDS011;4130;48.740;9.132;2022-10-31T07:38:28;4.83;;;2.17;;
8177;SDS011;4130;48.740;9.132;2022-10-31T07:40:55;2.20;;;2.00;;
8177;SDS011;4130;48.740;9.132;2022-10-31T07:43:22;4.63;;;2.10;;
8177;SDS011;4130;48.740;9.132;2022-10-31T07:45:49;3.07;;;2.10;;
8177;SDS011;4130;48.740;9.132;2022-10-31T07:48:16;2.40;;;2.20;;
8177;SDS011;4130;48.740;9.132;2022-10-31T07:50:45;1.73;;;1.63;;
8177;SDS011;4130;48.740;9.132;2022-10-31T07:53:12;4.07;;;2.27;;
8177;SDS011;4130;48.740;9.132;2022-10-31T07:55:40;3.47;;;2.13;;
8177;SDS011;4130;48.740;9.132;2022-10-31T07:58:07;2.60;;;2.20;;
8177;SDS011;4130;48.740;9.132;2022-10-31T08:00:35;2.07;;;1.77;;
8177;SDS011;4130;48.740;9.132;2022-10-31T08:03:03;4.30;;;2.27;;
8177;SDS011;4130;48.740;9.132;2022-10-31T08:05:32;2.07;;;1.90;;
8177;SDS011;4130;48.740;9.132;2022-10-31T08:08:00;3.07;;;2.00;;
8177;SDS011;4130;48.740;9.132;2022-10-31T08:10:28;5.47;;;2.10;;
8177;SDS011;4130;48.740;9.132;2022-10-31T08:12:55;2.47;;;2.27;;
8177;SDS011;4130;48.740;9.132;2022-10-31T08:15:23;2.13;;;1.93;;
8177;SDS011;4130;48.740;9.132;2022-10-31T08:17:50;13.10;;;3.57;;
8177;SDS011;4130;48.740;9.132;2022-10-31T08:20:17;3.57;;;2.57;;
8177;SDS011;4130;48.740;9.132;2022-10-31T08:22:51;4.77;;;3.03;;
8177;SDS011;4130;48.740;9.132;2022-10-31T08:25:20;3.47;;;3.00;;
8177;SDS011;4130;48.740;9.132;2022-10-31T08:27:48;3.70;;;2.60;;
8177;SDS011;4130;48.740;9.132;2022-10-31T08:30:16;3.27;;;2.70;;
8177;SDS011;4130;48.740;9.132;2022-10-31T08:32:43;4.40;;;2.77;;
8177;SDS011;4130;48.740;9.132;2022-10-31T08:35:10;5.43;;;2.97;;
8177;SDS011;4130;48.740;9.132;2022-10-31T08:37:36;2.97;;;2.63;;
8177;SDS011;4130;48.740;9.132;2022-10-31T08:40:03;3.43;;;2.70;;
8177;SDS011;4130;48.740;9.132;2022-10-31T08:42:32;3.70;;;3.30;;
8177;SDS011;4130;48.740;9.132;2022-10-31T08:44:59;3.93;;;3.30;;
8177;SDS011;4130;48.740;9.132;2022-10-31T08:47:26;5.40;;;3.50;;
8177;SDS011;4130;48.740;9.132;2022-10-31T08:49:53;7.60;;;4.43;;
8177;SDS011;4130;48.740;9.132;2022-10-31T08:52:22;7.67;;;4.87;;
8177;SDS011;4130;48.740;9.132;2022-10-31T08:54:50;11.07;;;5.20;;
8177;SDS011;4130;48.740;9.132;2022-10-31T08:57:16;10.00;;;4.53;;
8177;SDS011;4130;48.740;9.132;2022-10-31T08:59:44;7.40;;;4.43;;
8177;SDS011;4130;48.740;9.132;2022-10-31T09:02:11;5.80;;;4.50;;
8177;SDS011;4130;48.740;9.132;2022-10-31T09:04:38;5.50;;;4.13;;
8177;SDS011;4130;48.740;9.132;2022-10-31T09:07:04;5.78;;;3.80;;
8177;SDS011;4130;48.740;9.132;2022-10-31T09:09:31;4.82;;;3.45;;
8177;SDS011;4130;48.740;9.132;2022-10-31T09:11:58;5.00;;;3.47;;
8177;SDS011;4130;48.740;9.132;2022-10-31T09:14:24;6.40;;;3.25;;
8177;SDS011;4130;48.740;9.132;2022-10-31T09:16:53;4.30;;;3.13;;
8177;SDS011;4130;48.740;9.132;2022-10-31T09:19:19;3.85;;;2.55;;
8177;SDS011;4130;48.740;9.132;2022-10-31T09:21:46;6.82;;;3.10;;
8177;SDS011;4130;48.740;9.132;2022-10-31T09:24:13;8.55;;;3.20;;
8177;SDS011;4130;48.740;9.132;2022-10-31T09:26:39;4.30;;;2.83;;
8177;SDS011;4130;48.740;9.132;2022-10-31T09:29:06;4.03;;;3.15;;
8177;SDS011;4130;48.740;9.132;2022-10-31T09:31:34;5.80;;;3.20;;
8177;SDS011;4130;48.740;9.132;2022-10-31T09:34:03;6.05;;;3.10;;
8177;SDS011;4130;48.740;9.132;2022-10-31T09:36:29;4.85;;;3.25;;
8177;SDS011;4130;48.740;9.132;2022-10-31T09:38:56;4.45;;;3.00;;
8177;SDS011;4130;48.740;9.132;2022-10-31T09:41:24;5.13;;;3.33;;
8177;SDS011;4130;48.740;9.132;2022-10-31T09:44:00;3.75;;;3.00;;
8177;SDS011;4130;48.740;9.132;2022-10-31T09:46:34;8.10;;;4.90;;
8177;SDS011;4130;48.740;9.132;2022-10-31T09:49:20;8.35;;;5.43;;
8177;SDS011;4130;48.740;9.132;2022-10-31T09:51:57;10.63;;;6.18;;
8177;SDS011;4130;48.740;9.132;2022-10-31T09:54:37;7.95;;;5.50;;
8177;SDS011;4130;48.740;9.132;2022-10-31T09:57:10;9.43;;;6.38;;
8177;SDS011;4130;48.740;9.132;2022-10-31T09:59:40;12.40;;;5.60;;
8177;SDS011;4130;48.740;9.132;2022-10-31T10:02:12;6.93;;;4.78;;
8177;SDS011;4130;48.740;9.132;2022-10-31T10:04:44;8.15;;;5.00;;
8177;SDS011;4130;48.740;9.132;2022-10-31T10:07:19;7.97;;;4.78;;
8177;SDS011;4130;48.740;9.132;2022-10-31T10:09:51;5.53;;;3.90;;
8177;SDS011;4130;48.740;9.132;2022-10-31T10:12:19;7.53;;;4.00;;
8177;SDS011;4130;48.740;9.132;2022-10-31T10:15:04;7.40;;;3.85;;
8177;SDS011;4130;48.740;9.132;2022-10-31T10:17:57;8.05;;;4.75;;
8177;SDS011;4130;48.740;9.132;2022-10-31T10:20:34;9.55;;;5.35;;
8177;SDS011;4130;48.740;9.132;2022-10-31T10:23:23;12.32;;;7.47;;
8177;SDS011;4130;48.740;9.132;2022-10-31T10:26:02;14.23;;;8.63;;
8177;SDS011;4130;48.740;9.132;2022-10-31T10:28:40;12.18;;;8.35;;
8177;SDS011;4130;48.740;9.132;2022-10-31T10:31:11;12.60;;;9.27;;
8177;SDS011;4130;48.740;9.132;2022-10-31T10:33:42;11.60;;;7.35;;
8177;SDS011;4130;48.740;9.132;2022-10-31T10:36:16;11.73;;;6.03;;
8177;SDS011;4130;48.740;9.132;2022-10-31T10:38:49;7.03;;;5.40;;
8177;SDS011;4130;48.740;9.132;2022-10-31T10:41:20;7.53;;;5.18;;
8177;SDS011;4130;48.740;9.132;2022-10-31T10:43:48;8.20;;;5.45;;
8177;SDS011;4130;48.740;9.132;2022-10-31T10:46:17;9.13;;;5.40;;
8177;SDS011;4130;48.740;9.132;2022-10-31T10:49:18;11.18;;;5.65;;
8177;SDS011;4130;48.740;9.132;2022-10-31T10:51:50;7.22;;;5.18;;
8177;SDS011;4130;48.740;9.132;2022-10-31T10:54:34;7.68;;;4.40;;
8177;SDS011;4130;48.740;9.132;2022-10-31T10:57:17;12.65;;;5.35;;
8177;SDS011;4130;48.740;9.132;2022-10-31T10:59:48;7.65;;;4.70;;
8177;SDS011;4130;48.740;9.132;2022-10-31T11:02:16;5.22;;;4.40;;
8177;SDS011;4130;48.740;9.132;2022-10-31T11:04:44;5.55;;;3.70;;
8177;SDS011;4130;48.740;9.132;2022-10-31T11:07:16;6.75;;;3.78;;
8177;SDS011;4130;48.740;9.132;2022-10-31T11:09:43;7.07;;;4.15;;
8177;SDS011;4130;48.740;9.132;2022-10-31T11:12:15;11.13;;;3.88;;
8177;SDS011;4130;48.740;9.132;2022-10-31T11:14:46;5.85;;;2.92;;
8177;SDS011;4130;48.740;9.132;2022-10-31T11:17:26;5.65;;;3.50;;
8177;SDS011;4130;48.740;9.132;2022-10-31T11:20:00;4.97;;;3.25;;
8177;SDS011;4130;48.740;9.132;2022-10-31T11:22:32;6.43;;;3.35;;
8177;SDS011;4130;48.740;9.132;2022-10-31T11:24:59;8.15;;;3.40;;
8177;SDS011;4130;48.740;9.132;2022-10-31T11:27:26;7.57;;;3.38;;
8177;SDS011;4130;48.740;9.132;2022-10-31T11:30:04;8.80;;;3.60;;
8177;SDS011;4130;48.740;9.132;2022-10-31T11:32:33;6.32;;;3.40;;
8177;SDS011;4130;48.740;9.132;2022-10-31T11:35:00;5.75;;;3.80;;
8177;SDS011;4130;48.740;9.132;2022-10-31T11:37:30;6.88;;;3.97;;
8177;SDS011;4130;48.740;9.132;2022-10-31T11:40:02;5.97;;;3.25;;
8177;SDS011;4130;48.740;9.132;2022-10-31T11:42:34;5.90;;;3.35;;
8177;SDS011;4130;48.740;9.132;2022-10-31T11:45:06;4.53;;;3.35;;
8177;SDS011;4130;48.740;9.132;2022-10-31T11:47:41;6.15;;;2.80;;
8177;SDS011;4130;48.740;9.132;2022-10-31T11:50:10;4.22;;;3.33;;
8177;SDS011;4130;48.740;9.132;2022-10-31T11:52:45;5.65;;;3.13;;
8177;SDS011;4130;48.740;9.132;2022-10-31T11:55:16;5.72;;;3.00;;
8177;SDS011;4130;48.740;9.132;2022-10-31T11:57:56;8.52;;;3.42;;
8177;SDS011;4130;48.740;9.132;2022-10-31T12:00:24;6.03;;;3.20;;
8177;SDS011;4130;48.740;9.132;2022-10-31T12:03:04;5.65;;;3.58;;
8177;SDS011;4130;48.740;9.132;2022-10-31T12:05:36;5.65;;;3.30;;
8177;SDS011;4130;48.740;9.132;2022-10-31T12:08:08;7.50;;;3.70;;
8177;SDS011;4130;48.740;9.132;2022-10-31T12:10:39;6.43;;;3.45;;
8177;SDS011;4130;48.740;9.132;2022-10-31T12:13:16;5.47;;;3.20;;
8177;SDS011;4130;48.740;9.132;2022-10-31T12:15:57;4.50;;;3.00;;
8177;SDS011;4130;48.740;9.132;2022-10-31T12:18:31;6.78;;;3.45;;
8177;SDS011;4130;48.740;9.132;2022-10-31T12:21:19;6.60;;;3.47;;
8177;SDS011;4130;48.740;9.132;2022-10-31T12:23:58;8.93;;;3.55;;
8177;SDS011;4130;48.740;9.132;2022-10-31T12:26:34;5.57;;;3.10;;
8177;SDS011;4130;48.740;9.132;2022-10-31T12:29:15;4.60;;;3.28;;
8177;SDS011;4130;48.740;9.132;2022-10-31T12:31:53;6.00;;;3.15;;
8177;SDS011;4130;48.740;9.132;2022-10-31T12:34:32;6.25;;;3.05;;
8177;SDS011;4130;48.740;9.132;2022-10-31T12:37:12;4.88;;;2.90;;
8177;SDS011;4130;48.740;9.132;2022-10-31T12:39:47;4.90;;;2.88;;
8177;SDS011;4130;48.740;9.132;2022-10-31T12:42:23;6.50;;;3.47;;
8177;SDS011;4130;48.740;9.132;2022-10-31T12:45:12;8.35;;;3.03;;
8177;SDS011;4130;48.740;9.132;2022-10-31T12:47:55;5.20;;;3.30;;
8177;SDS011;4130;48.740;9.132;2022-10-31T12:50:33;6.55;;;2.72;;
8177;SDS011;4130;48.740;9.132;2022-10-31T12:53:16;4.43;;;3.03;;
8177;SDS011;4130;48.740;9.132;2022-10-31T12:55:55;4.10;;;2.72;;
8177;SDS011;4130;48.740;9.132;2022-10-31T12:58:34;7.10;;;3.15;;
8177;SDS011;4130;48.740;9.132;2022-10-31T13:01:07;4.50;;;2.63;;
8177;SDS011;4130;48.740;9.132;2022-10-31T13:03:39;6.93;;;4.15;;
8177;SDS011;4130;48.740;9.132;2022-10-31T13:06:13;9.13;;;4.80;;
8177;SDS011;4130;48.740;9.132;2022-10-31T13:08:44;8.55;;;3.83;;
8177;SDS011;4130;48.740;9.132;2022-10-31T13:11:18;5.20;;;3.13;;
8177;SDS011;4130;48.740;9.132;2022-10-31T13:13:50;5.72;;;3.13;;
8177;SDS011;4130;48.740;9.132;2022-10-31T13:16:22;8.18;;;3.78;;
8177;SDS011;4130;48.740;9.132;2022-10-31T13:18:52;4.63;;;2.97;;
8177;SDS011;4130;48.740;9.132;2022-10-31T13:21:25;6.22;;;3.20;;
8177;SDS011;4130;48.740;9.132;2022-10-31T13:23:56;5.20;;;3.25;;
8177;SDS011;4130;48.740;9.132;2022-10-31T13:26:32;7.47;;;3.70;;
8177;SDS011;4130;48.740;9.132;2022-10-31T13:29:05;4.53;;;2.90;;
8177;SDS011;4130;48.740;9.132;2022-10-31T13:31:39;5.07;;;3.17;;
8177;SDS011;4130;48.740;9.132;2022-10-31T13:34:08;5.63;;;3.60;;
8177;SDS011;4130;48.740;9.132;2022-10-31T13:36:43;6.70;;;3.65;;
8177;SDS011;4130;48.740;9.132;2022-10-31T13:39:17;5.95;;;3.15;;
8177;SDS011;4130;48.740;9.132;2022-10-31T13:41:51;4.57;;;3.03;;
8177;SDS011;4130;48.740;9.132;2022-10-31T13:44:23;5.25;;;3.00;;
8177;SDS011;4130;48.740;9.132;2022-10-31T13:46:51;5.35;;;3.00;;
8177;SDS011;4130;48.740;9.132;2022-10-31T13:49:23;8.70;;;3.70;;
8177;SDS011;4130;48.740;9.132;2022-10-31T13:52:05;7.80;;;3.38;;
8177;SDS011;4130;48.740;9.132;2022-10-31T13:54:40;4.53;;;2.75;;
8177;SDS011;4130;48.740;9.132;2022-10-31T13:57:14;7.88;;;3.22;;
8177;SDS011;4130;48.740;9.132;2022-10-31T13:59:47;4.80;;;3.17;;
8177;SDS011;4130;48.740;9.132;2022-10-31T14:02:16;6.07;;;3.45;;
8177;SDS011;4130;48.740;9.132;2022-10-31T14:04:47;7.18;;;3.03;;
8177;SDS011;4130;48.740;9.132;2022-10-31T14:07:17;4.88;;;3.20;;
8177;SDS011;4130;48.740;9.132;2022-10-31T14:09:52;4.40;;;2.88;;
8177;SDS011;4130;48.740;9.132;2022-10-31T14:12:24;3.90;;;2.88;;
8177;SDS011;4130;48.740;9.132;2022-10-31T14:14:55;5.90;;;3.00;;
8177;SDS011;4130;48.740;9.132;2022-10-31T14:17:25;10.38;;;3.47;;
8177;SDS011;4130;48.740;9.132;2022-10-31T14:19:59;7.63;;;3.17;;
8177;SDS011;4130;48.740;9.132;2022-10-31T14:22:31;4.00;;;2.88;;
8177;SDS011;4130;48.740;9.132;2022-10-31T14:24:59;4.35;;;3.10;;
8177;SDS011;4130;48.740;9.132;2022-10-31T14:27:43;6.30;;;2.65;;
8177;SDS011;4130;48.740;9.132;2022-10-31T14:30:16;6.38;;;3.10;;
8177;SDS011;4130;48.740;9.132;2022-10-31T14:32:49;5.10;;;3.35;;
8177;SDS011;4130;48.740;9.132;2022-10-31T14:35:17;9.07;;;3.00;;
8177;SDS011;4130;48.740;9.132;2022-10-31T14:38:01;6.07;;;2.80;;
8177;SDS011;4130;48.740;9.132;2022-10-31T14:40:52;7.70;;;2.60;;
8177;SDS011;4130;48.740;9.132;2022-10-31T14:43:42;5.28;;;2.75;;
8177;SDS011;4130;48.740;9.132;2022-10-31T14:46:30;5.38;;;3.22;;
8177;SDS011;4130;48.740;9.132;2022-10-31T14:49:10;6.72;;;3.55;;
8177;SDS011;4130;48.740;9.132;2022-10-31T14:51:46;3.88;;;2.40;;
8177;SDS011;4130;48.740;9.132;2022-10-31T14:54:15;4.68;;;2.90;;
8177;SDS011;4130;48.740;9.132;2022-10-31T14:56:47;5.20;;;2.83;;
8177;SDS011;4130;48.740;9.132;2022-10-31T14:59:20;5.70;;;2.90;;
8177;SDS011;4130;48.740;9.132;2022-10-31T15:01:54;6.95;;;3.08;;
8177;SDS011;4130;48.740;9.132;2022-10-31T15:04:25;5.43;;;2.67;;
8177;SDS011;4130;48.740;9.132;2022-10-31T15:06:54;5.65;;;2.90;;
8177;SDS011;4130;48.740;9.132;2022-10-31T15:09:28;4.13;;;3.28;;
8177;SDS011;4130;48.740;9.132;2022-10-31T15:11:55;6.75;;;3.20;;
8177;SDS011;4130;48.740;9.132;2022-10-31T15:14:26;7.25;;;3.00;;
8177;SDS011;4130;48.740;9.132;2022-10-31T15:16:55;3.30;;;2.60;;
8177;SDS011;4130;48.740;9.132;2022-10-31T15:19:24;5.97;;;3.33;;
8177;SDS011;4130;48.740;9.132;2022-10-31T15:21:53;5.28;;;3.03;;
8177;SDS011;4130;48.740;9.132;2022-10-31T15:24:22;6.70;;;4.18;;
8177;SDS011;4130;48.740;9.132;2022-10-31T15:26:52;6.50;;;4.97;;
8177;SDS011;4130;48.740;9.132;2022-10-31T15:29:23;7.97;;;4.40;;
8177;SDS011;4130;48.740;9.132;2022-10-31T15:31:55;9.18;;;4.00;;
8177;SDS011;4130;48.740;9.132;2022-10-31T15:34:26;8.10;;;3.85;;
8177;SDS011;4130;48.740;9.132;2022-10-31T15:36:56;6.55;;;3.53;;
8177;SDS011;4130;48.740;9.132;2022-10-31T15:39:23;5.72;;;3.35;;
8177;SDS011;4130;48.740;9.132;2022-10-31T15:41:51;7.50;;;3.67;;